createdAt,value
2022-10-07T00:01:50.551Z,2.90
2022-10-07T00:04:19.839Z,2.90
2022-10-07T00:06:49.416Z,2.90
2022-10-07T00:09:18.299Z,2.90
2022-10-07T00:11:47.292Z,2.90
2022-10-07T00:14:16.032Z,2.90
2022-10-07T00:16:47.744Z,2.90
2022-10-07T00:19:16.761Z,2.80
2022-10-07T00:21:45.471Z,2.80
2022-10-07T00:24:16.186Z,2.80
2022-10-07T00:26:45.163Z,2.70
2022-10-07T00:29:13.888Z,2.70
2022-10-07T00:31:43.619Z,2.70
2022-10-07T00:34:14.424Z,2.70
2022-10-07T00:36:46.158Z,2.60
2022-10-07T00:39:21.325Z,2.60
2022-10-07T00:41:51.905Z,2.60
2022-10-07T00:44:39.977Z,2.60
2022-10-07T00:47:21.420Z,2.60
2022-10-07T00:49:55.981Z,2.50
2022-10-07T00:52:27.740Z,2.50
2022-10-07T00:55:04.134Z,2.50
2022-10-07T00:57:36.200Z,2.50
2022-10-07T01:00:09.390Z,2.40
2022-10-07T01:02:38.739Z,2.40
2022-10-07T01:05:14.428Z,2.30
2022-10-07T01:07:48.854Z,2.40
2022-10-07T01:10:20.389Z,2.40
2022-10-07T01:13:05.292Z,2.40
2022-10-07T01:15:39.612Z,2.30
2022-10-07T01:18:18.436Z,2.30
2022-10-07T01:20:56.955Z,2.30
2022-10-07T01:23:54.350Z,2.40
2022-10-07T01:26:47.506Z,2.30
2022-10-07T01:29:23.072Z,2.30
2022-10-07T01:32:01.244Z,2.30
2022-10-07T01:34:30.840Z,2.20
2022-10-07T01:37:03.372Z,2.10
2022-10-07T01:39:37.875Z,2.00
2022-10-07T01:42:12.154Z,2.00
2022-10-07T01:44:50.169Z,1.90
2022-10-07T01:47:19.345Z,2.00
2022-10-07T01:49:52.845Z,3.30
2022-10-07T01:52:44.921Z,2.10
2022-10-07T01:55:44.566Z,2.10
2022-10-07T01:58:44.248Z,2.10
2022-10-07T02:01:29.002Z,2.00
2022-10-07T02:04:19.838Z,2.10
2022-10-07T02:07:04.269Z,2.10
2022-10-07T02:09:42.881Z,2.10
2022-10-07T02:20:38.841Z,2.00
2022-10-07T02:23:11.712Z,2.00
2022-10-07T02:25:46.988Z,2.00
2022-10-07T02:28:17.850Z,2.00
2022-10-07T02:31:01.290Z,2.00
2022-10-07T02:33:33.696Z,2.00
2022-10-07T02:36:10.891Z,1.90
2022-10-07T02:38:42.895Z,1.90
2022-10-07T02:41:31.630Z,1.90
2022-10-07T02:44:21.021Z,1.90
2022-10-07T02:46:55.820Z,1.90
2022-10-07T02:49:28.268Z,1.80
2022-10-07T02:52:01.400Z,1.80
2022-10-07T02:54:38.764Z,1.80
2022-10-07T02:57:10.914Z,1.80
2022-10-07T02:59:42.231Z,1.80
2022-10-07T03:02:23.279Z,1.90
2022-10-07T03:04:52.172Z,1.80
2022-10-07T03:07:23.524Z,1.80
2022-10-07T03:09:53.956Z,1.80
2022-10-07T03:12:22.768Z,1.80
2022-10-07T03:14:51.516Z,1.80
2022-10-07T03:17:22.232Z,1.70
2022-10-07T03:19:51.912Z,1.70
2022-10-07T03:22:21.504Z,1.70
2022-10-07T03:24:55.176Z,1.70
2022-10-07T03:27:24.057Z,1.80
2022-10-07T03:29:58.651Z,1.80
2022-10-07T03:32:31.556Z,1.90
2022-10-07T03:35:03.414Z,1.80
2022-10-07T03:37:36.712Z,1.80
2022-10-07T03:40:12.139Z,1.70
2022-10-07T03:42:43.904Z,1.60
2022-10-07T03:45:12.920Z,1.50
2022-10-07T03:47:41.923Z,1.50
2022-10-07T03:50:16.026Z,1.40
2022-10-07T03:52:46.767Z,1.40
2022-10-07T03:55:23.739Z,1.40
2022-10-07T03:57:59.342Z,1.50
2022-10-07T04:00:30.822Z,1.50
2022-10-07T04:03:00.733Z,1.60
2022-10-07T04:05:30.119Z,1.50
2022-10-07T04:08:05.224Z,1.60
2022-10-07T04:10:36.555Z,1.60
2022-10-07T04:13:05.752Z,1.60
2022-10-07T04:15:34.692Z,1.60
2022-10-07T04:18:10.332Z,1.80
2022-10-07T04:20:41.155Z,1.80
2022-10-07T04:23:12.499Z,1.80
2022-10-07T04:25:46.171Z,1.60
2022-10-07T04:28:23.719Z,1.50
2022-10-07T04:30:57.731Z,1.40
2022-10-07T04:33:33.993Z,1.30
2022-10-07T04:36:06.310Z,1.40
2022-10-07T04:38:38.527Z,1.30
2022-10-07T04:41:09.906Z,1.30
2022-10-07T04:43:41.000Z,1.40
2022-10-07T04:46:15.003Z,1.40
2022-10-07T04:48:52.667Z,1.40
2022-10-07T04:51:25.657Z,1.50
2022-10-07T04:53:58.643Z,1.50
2022-10-07T04:56:35.421Z,1.40
2022-10-07T04:59:08.292Z,1.30
2022-10-07T05:01:40.127Z,1.30
2022-10-07T05:04:12.091Z,1.30
2022-10-07T05:07:03.303Z,1.30
2022-10-07T05:09:36.390Z,1.30
2022-10-07T05:12:09.211Z,1.30
2022-10-07T05:14:40.413Z,1.40
2022-10-07T05:17:11.042Z,1.60
2022-10-07T05:19:40.486Z,1.80
2022-10-07T05:22:11.110Z,1.80
2022-10-07T05:24:40.787Z,1.80
2022-10-07T05:27:13.237Z,1.80
2022-10-07T05:29:43.466Z,2.00
2022-10-07T05:32:12.981Z,2.00
2022-10-07T05:34:42.389Z,2.10
2022-10-07T05:37:13.245Z,2.20
2022-10-07T05:39:44.145Z,2.20
2022-10-07T05:42:19.588Z,2.30
2022-10-07T05:44:58.500Z,2.40
2022-10-07T05:47:28.458Z,2.50
2022-10-07T05:49:59.003Z,2.60
2022-10-07T05:52:29.601Z,2.70
2022-10-07T05:54:59.217Z,2.80
2022-10-07T05:57:30.970Z,2.90
2022-10-07T06:00:04.552Z,3.00
2022-10-07T06:02:42.927Z,3.10
2022-10-07T06:05:14.849Z,3.20
2022-10-07T06:07:44.732Z,3.30
2022-10-07T06:10:31.892Z,3.50
2022-10-07T06:13:12.312Z,3.70
2022-10-07T06:15:47.064Z,3.80
2022-10-07T06:18:17.799Z,4.00
2022-10-07T06:20:56.399Z,4.10
2022-10-07T06:23:28.181Z,4.20
2022-10-07T06:25:59.220Z,4.30
2022-10-07T06:28:36.043Z,4.30
2022-10-07T06:31:07.958Z,4.40
2022-10-07T06:33:39.099Z,4.60
2022-10-07T06:36:11.980Z,4.80
2022-10-07T06:38:47.595Z,4.80
2022-10-07T06:41:17.971Z,4.90
2022-10-07T06:43:51.060Z,5.10
2022-10-07T06:46:22.132Z,5.20
2022-10-07T06:48:54.443Z,5.30
2022-10-07T06:51:24.546Z,5.40
2022-10-07T06:53:58.745Z,5.50
2022-10-07T06:56:29.392Z,5.60
2022-10-07T06:59:03.747Z,5.70
2022-10-07T07:01:41.249Z,5.80
2022-10-07T07:04:11.290Z,6.00
2022-10-07T07:07:18.391Z,6.10
2022-10-07T07:09:48.195Z,6.50
2022-10-07T07:12:17.822Z,6.60
2022-10-07T07:14:49.610Z,6.60
2022-10-07T07:17:21.386Z,6.40
2022-10-07T07:19:51.157Z,7.20
2022-10-07T07:22:21.143Z,7.20
2022-10-07T07:24:53.789Z,7.20
2022-10-07T07:27:23.461Z,7.50
2022-10-07T07:29:54.933Z,7.70
2022-10-07T07:32:24.509Z,7.90
2022-10-07T07:34:56.227Z,8.00
2022-10-07T07:37:26.358Z,8.20
2022-10-07T07:39:59.574Z,8.50
2022-10-07T07:42:30.021Z,8.60
2022-10-07T07:45:03.656Z,8.30
2022-10-07T07:47:36.087Z,8.90
2022-10-07T07:50:07.029Z,9.10
2022-10-07T07:52:37.339Z,9.70
2022-10-07T07:55:09.582Z,9.60
2022-10-07T07:57:39.954Z,9.80
2022-10-07T08:00:16.578Z,10.00
2022-10-07T08:03:01.652Z,10.30
2022-10-07T08:05:31.397Z,10.60
2022-10-07T08:08:01.997Z,10.80
2022-10-07T08:10:32.278Z,12.50
2022-10-07T08:13:01.532Z,13.20
2022-10-07T08:15:34.416Z,12.90
2022-10-07T08:18:07.578Z,13.20
2022-10-07T08:20:38.121Z,14.40
2022-10-07T08:23:10.400Z,15.30
2022-10-07T08:25:46.916Z,16.50
2022-10-07T08:28:18.332Z,17.10
2022-10-07T08:30:56.104Z,17.70
2022-10-07T08:33:26.079Z,18.10
2022-10-07T08:36:04.787Z,18.60
2022-10-07T08:38:35.813Z,19.20
2022-10-07T08:41:19.532Z,19.60
2022-10-07T08:43:51.493Z,20.50
2022-10-07T08:46:32.069Z,20.80
2022-10-07T08:49:07.668Z,21.50
2022-10-07T08:51:45.284Z,22.00
2022-10-07T08:54:17.504Z,22.80
2022-10-07T08:56:48.555Z,23.10
2022-10-07T08:59:22.535Z,22.60
2022-10-07T09:02:18.951Z,21.60
2022-10-07T09:04:58.846Z,22.70
2022-10-07T09:07:38.594Z,22.40
2022-10-07T09:10:23.571Z,20.80
2022-10-07T09:13:02.266Z,22.00
2022-10-07T09:15:40.697Z,22.00
2022-10-07T09:18:21.546Z,22.40
2022-10-07T09:20:55.542Z,23.80
2022-10-07T09:23:47.086Z,24.60
2022-10-07T09:26:22.921Z,23.80
2022-10-07T09:28:52.401Z,23.50
2022-10-07T09:31:26.212Z,23.20
2022-10-07T09:33:57.803Z,22.70
2022-10-07T09:36:27.716Z,22.10
2022-10-07T09:38:56.714Z,22.80
2022-10-07T09:41:32.354Z,23.30
2022-10-07T09:44:06.791Z,24.80
2022-10-07T09:46:49.221Z,25.30
2022-10-07T09:49:41.731Z,23.90
2022-10-07T09:52:19.541Z,22.90
2022-10-07T09:54:50.973Z,23.70
2022-10-07T09:57:36.726Z,23.30
2022-10-07T10:00:26.485Z,23.00
2022-10-07T10:03:06.741Z,23.60
2022-10-07T10:05:40.410Z,26.40
2022-10-07T10:08:25.029Z,26.00
2022-10-07T10:10:56.588Z,25.70
2022-10-07T10:13:35.464Z,25.40
2022-10-07T10:16:07.054Z,26.50
2022-10-07T10:18:40.362Z,26.00
2022-10-07T10:21:36.331Z,27.00
2022-10-07T10:24:12.544Z,26.40
2022-10-07T10:26:57.154Z,26.00
2022-10-07T10:29:47.053Z,27.20
2022-10-07T10:32:57.704Z,27.70
2022-10-07T10:35:30.162Z,28.10
2022-10-07T10:38:23.072Z,27.90
2022-10-07T10:41:00.920Z,25.80
2022-10-07T10:43:40.562Z,27.90
2022-10-07T10:46:22.412Z,24.70
2022-10-07T10:48:56.482Z,23.80
2022-10-07T10:51:43.408Z,22.80
2022-10-07T10:54:26.980Z,22.80
2022-10-07T10:57:03.823Z,25.10
2022-10-07T10:59:58.616Z,26.70
2022-10-07T11:02:45.953Z,28.10
2022-10-07T11:05:18.659Z,28.10
2022-10-07T11:07:54.822Z,27.80
2022-10-07T11:10:30.241Z,28.40
2022-10-07T11:13:03.259Z,29.70
2022-10-07T11:15:37.750Z,30.30
2022-10-07T11:18:11.916Z,32.10
2022-10-07T11:20:48.816Z,29.70
2022-10-07T11:23:24.015Z,28.40
2022-10-07T11:25:59.250Z,29.10
2022-10-07T11:28:31.001Z,29.00
2022-10-07T11:31:10.811Z,28.50
2022-10-07T11:33:46.927Z,29.50
2022-10-07T11:36:19.943Z,28.50
2022-10-07T11:38:51.379Z,29.10
2022-10-07T11:41:27.778Z,29.10
2022-10-07T11:44:00.350Z,29.40
2022-10-07T11:46:34.516Z,28.90
2022-10-07T11:49:07.826Z,28.80
2022-10-07T11:51:41.649Z,29.00
2022-10-07T11:54:19.478Z,28.60
2022-10-07T11:56:53.669Z,28.60
2022-10-07T11:59:40.602Z,29.60
2022-10-07T12:02:47.574Z,30.70
2022-10-07T12:06:05.874Z,29.60
2022-10-07T12:08:37.778Z,30.80
2022-10-07T12:11:43.892Z,28.90
2022-10-07T12:14:45.918Z,30.20
2022-10-07T12:17:28.464Z,32.00
2022-10-07T12:20:35.163Z,30.90
2022-10-07T12:23:50.034Z,31.20
2022-10-07T12:26:50.188Z,31.30
2022-10-07T12:29:34.891Z,29.70
2022-10-07T12:32:06.613Z,28.50
2022-10-07T12:34:39.289Z,30.00
2022-10-07T12:37:38.532Z,30.20
2022-10-07T12:40:19.322Z,29.20
2022-10-07T12:42:56.069Z,29.60
2022-10-07T12:45:28.997Z,30.60
2022-10-07T12:48:02.420Z,32.20
2022-10-07T12:50:33.758Z,30.10
2022-10-07T12:53:05.032Z,29.10
2022-10-07T12:55:38.468Z,29.50
2022-10-07T12:58:36.565Z,31.40
2022-10-07T13:01:18.774Z,29.90
2022-10-07T13:04:20.281Z,30.40
2022-10-07T13:07:30.830Z,29.90
2022-10-07T13:10:25.473Z,29.20
2022-10-07T13:12:57.764Z,29.20
2022-10-07T13:15:33.320Z,32.00
2022-10-07T13:18:11.070Z,30.90
2022-10-07T13:21:16.814Z,29.10
2022-10-07T13:23:53.196Z,28.20
2022-10-07T13:26:24.064Z,28.20
2022-10-07T13:28:56.276Z,31.40
2022-10-07T13:31:28.421Z,29.60
2022-10-07T13:33:59.950Z,29.00
2022-10-07T13:36:33.003Z,29.10
2022-10-07T13:39:14.626Z,29.60
2022-10-07T13:41:47.593Z,28.40
2022-10-07T13:44:19.966Z,27.90
2022-10-07T13:46:59.223Z,27.80
2022-10-07T13:49:32.078Z,27.70
2022-10-07T13:52:06.937Z,27.30
2022-10-07T13:54:36.407Z,27.60
2022-10-07T13:57:11.642Z,27.80
2022-10-07T13:59:42.228Z,27.00
2022-10-07T14:02:16.136Z,26.30
2022-10-07T14:04:54.806Z,26.20
2022-10-07T14:07:29.619Z,25.80
2022-10-07T14:10:10.263Z,25.30
2022-10-07T14:12:43.074Z,25.00
2022-10-07T14:15:17.470Z,24.30
2022-10-07T14:17:49.087Z,23.70
2022-10-07T14:20:23.610Z,23.30
2022-10-07T14:22:56.595Z,23.00
2022-10-07T14:25:28.874Z,22.80
2022-10-07T14:28:19.484Z,23.30
2022-10-07T14:31:26.595Z,24.00
2022-10-07T14:34:18.042Z,23.70
2022-10-07T14:37:03.740Z,23.90
2022-10-07T14:39:38.213Z,22.80
2022-10-07T14:42:12.403Z,22.50
2022-10-07T14:44:44.448Z,22.30
2022-10-07T14:47:15.973Z,22.50
2022-10-07T14:49:45.403Z,22.40
2022-10-07T14:52:19.966Z,22.00
2022-10-07T14:54:58.557Z,22.20
2022-10-07T14:57:28.900Z,22.50
2022-10-07T14:59:58.956Z,22.20
2022-10-07T15:02:29.605Z,22.40
2022-10-07T15:04:58.936Z,21.90
2022-10-07T15:07:28.345Z,21.70
2022-10-07T15:09:59.469Z,21.40
2022-10-07T15:12:29.670Z,21.30
2022-10-07T15:15:02.524Z,21.00
2022-10-07T15:17:35.542Z,20.90
2022-10-07T15:20:13.468Z,20.90
2022-10-07T15:22:43.959Z,21.00
2022-10-07T15:25:16.816Z,20.50
2022-10-07T15:27:47.646Z,20.30
2022-10-07T15:30:17.281Z,20.10
2022-10-07T15:32:46.822Z,19.90
2022-10-07T15:35:16.781Z,19.60
2022-10-07T15:37:46.415Z,19.30
2022-10-07T15:40:17.176Z,18.90
2022-10-07T15:42:47.409Z,18.70
2022-10-07T15:45:19.860Z,18.50
2022-10-07T15:47:51.657Z,18.40
2022-10-07T15:50:21.400Z,18.20
2022-10-07T15:52:51.042Z,17.90
2022-10-07T15:55:22.339Z,17.70
2022-10-07T15:57:52.079Z,17.40
2022-10-07T16:00:22.201Z,17.30
2022-10-07T16:02:52.297Z,17.10
2022-10-07T16:05:22.147Z,16.80
2022-10-07T16:07:53.792Z,16.50
2022-10-07T16:10:27.193Z,16.10
2022-10-07T16:12:57.447Z,15.90
2022-10-07T16:15:27.235Z,15.60
2022-10-07T16:17:58.764Z,15.50
2022-10-07T16:20:28.531Z,15.50
2022-10-07T16:22:58.117Z,15.30
2022-10-07T16:25:30.416Z,15.10
2022-10-07T16:28:17.917Z,15.10
2022-10-07T16:30:52.095Z,14.90
2022-10-07T16:33:21.743Z,14.70
2022-10-07T16:35:50.899Z,14.50
2022-10-07T16:38:23.523Z,14.40
2022-10-07T16:40:58.030Z,14.30
2022-10-07T16:43:28.474Z,14.20
2022-10-07T16:45:58.258Z,14.00
2022-10-07T16:48:27.835Z,13.70
2022-10-07T16:50:58.069Z,13.70
2022-10-07T16:53:28.530Z,13.60
2022-10-07T16:56:05.404Z,13.60
2022-10-07T16:58:35.074Z,13.40
2022-10-07T17:01:05.234Z,13.30
2022-10-07T17:03:36.716Z,13.40
2022-10-07T17:06:08.384Z,13.40
2022-10-07T17:08:42.818Z,13.40
2022-10-07T17:11:29.401Z,13.40
2022-10-07T17:14:01.048Z,13.40
2022-10-07T17:16:33.409Z,13.30
2022-10-07T17:19:04.724Z,13.40
2022-10-07T17:21:36.406Z,13.50
2022-10-07T17:24:06.486Z,13.30
2022-10-07T17:26:39.355Z,13.10
2022-10-07T17:29:10.363Z,13.00
2022-10-07T17:31:43.647Z,12.80
2022-10-07T17:34:14.467Z,12.60
2022-10-07T17:36:47.386Z,12.50
2022-10-07T17:39:16.860Z,12.40
2022-10-07T17:41:49.310Z,12.40
2022-10-07T17:44:20.139Z,12.40
2022-10-07T17:46:52.688Z,12.30
2022-10-07T17:49:23.420Z,12.30
2022-10-07T17:51:53.179Z,12.20
2022-10-07T17:54:25.512Z,12.10
2022-10-07T17:56:57.182Z,12.10
2022-10-07T17:59:27.429Z,12.10
2022-10-07T18:01:59.662Z,12.10
2022-10-07T18:04:30.737Z,12.20
2022-10-07T18:07:01.790Z,12.20
2022-10-07T18:09:31.461Z,11.80
2022-10-07T18:12:20.384Z,11.60
2022-10-07T18:15:06.894Z,11.80
2022-10-07T18:17:37.269Z,12.00
2022-10-07T18:20:14.254Z,12.30
2022-10-07T18:22:45.900Z,12.50
2022-10-07T18:25:15.757Z,12.70
2022-10-07T18:27:48.375Z,12.80
2022-10-07T18:30:19.446Z,12.90
2022-10-07T18:32:49.304Z,13.10
2022-10-07T18:35:19.244Z,13.10
2022-10-07T18:37:50.076Z,13.30
2022-10-07T18:40:20.125Z,13.40
2022-10-07T18:42:52.153Z,13.40
2022-10-07T18:45:23.935Z,13.30
2022-10-07T18:47:54.129Z,13.20
2022-10-07T18:50:26.091Z,13.10
2022-10-07T18:53:02.890Z,13.10
2022-10-07T18:55:32.873Z,13.00
2022-10-07T18:58:05.028Z,13.10
2022-10-07T19:00:35.368Z,13.00
2022-10-07T19:03:05.232Z,13.00
2022-10-07T19:05:39.128Z,13.00
2022-10-07T19:08:10.306Z,13.10
2022-10-07T19:10:42.296Z,13.10
2022-10-07T19:13:32.682Z,13.20
2022-10-07T19:16:05.390Z,13.20
2022-10-07T19:18:39.197Z,13.20
2022-10-07T19:21:09.505Z,13.10
2022-10-07T19:23:39.168Z,13.10
2022-10-07T19:26:15.638Z,13.20
2022-10-07T19:28:50.677Z,13.30
2022-10-07T19:31:23.841Z,13.40
2022-10-07T19:33:58.204Z,13.60
2022-10-07T19:36:29.487Z,13.70
2022-10-07T19:39:01.948Z,13.70
2022-10-07T19:41:35.336Z,13.70
2022-10-07T19:44:07.884Z,13.70
2022-10-07T19:46:38.949Z,13.80
2022-10-07T19:49:09.618Z,14.00
2022-10-07T19:51:40.778Z,14.10
2022-10-07T19:54:11.198Z,14.10
2022-10-07T19:56:42.819Z,14.10
2022-10-07T19:59:16.729Z,14.30
2022-10-07T20:01:50.495Z,14.20
2022-10-07T20:04:22.918Z,14.30
2022-10-07T20:06:52.685Z,14.40
2022-10-07T20:09:22.874Z,14.40
2022-10-07T20:11:52.638Z,14.50
2022-10-07T20:14:24.646Z,14.50
2022-10-07T20:16:56.297Z,14.60
2022-10-07T20:19:26.070Z,14.50
2022-10-07T20:21:56.447Z,14.60
2022-10-07T20:24:27.259Z,14.50
2022-10-07T20:26:56.490Z,14.50
2022-10-07T20:29:28.355Z,14.40
2022-10-07T20:31:58.579Z,14.40
2022-10-07T20:34:29.730Z,14.40
2022-10-07T20:36:59.093Z,14.40
2022-10-07T20:39:45.665Z,14.30
2022-10-07T20:42:26.162Z,14.30
2022-10-07T20:44:59.334Z,14.20
2022-10-07T20:47:32.023Z,14.20
2022-10-07T20:50:03.043Z,14.20
2022-10-07T20:52:34.145Z,14.20
2022-10-07T20:55:04.162Z,14.30
2022-10-07T20:57:47.345Z,14.30
2022-10-07T21:00:18.843Z,14.40
2022-10-07T21:02:48.919Z,14.50
2022-10-07T21:05:18.777Z,14.50
2022-10-07T21:07:53.820Z,14.40
2022-10-07T21:10:24.108Z,14.50
2022-10-07T21:12:56.830Z,14.50
2022-10-07T21:15:28.073Z,14.60
2022-10-07T21:17:58.408Z,14.60
2022-10-07T21:20:27.919Z,14.50
2022-10-07T21:22:58.013Z,14.60
2022-10-07T21:25:27.468Z,14.50
2022-10-07T21:27:57.334Z,14.60
2022-10-07T21:30:29.942Z,14.60
2022-10-07T21:32:59.959Z,14.60
2022-10-07T21:35:30.579Z,14.60
2022-10-07T21:38:00.629Z,14.70
2022-10-07T21:40:31.998Z,14.70
2022-10-07T21:43:01.939Z,14.70
2022-10-07T21:45:33.006Z,14.70
2022-10-07T21:48:02.776Z,14.70
2022-10-07T21:50:32.574Z,14.70
2022-10-07T21:53:01.925Z,15.00
2022-10-07T21:55:31.744Z,15.00
2022-10-07T21:58:02.135Z,15.10
2022-10-07T22:00:36.663Z,15.20
2022-10-07T22:03:06.426Z,15.20
2022-10-07T22:05:36.507Z,15.20
2022-10-07T22:08:21.975Z,15.10
2022-10-07T22:10:51.476Z,15.00
2022-10-07T22:13:21.499Z,14.90
2022-10-07T22:15:52.935Z,14.90
2022-10-07T22:18:22.611Z,14.90
2022-10-07T22:20:52.266Z,14.80
2022-10-07T22:23:21.999Z,14.80
2022-10-07T22:25:52.107Z,14.70
2022-10-07T22:28:22.003Z,14.60
2022-10-07T22:30:53.662Z,14.60
2022-10-07T22:33:23.639Z,14.50
2022-10-07T22:35:52.088Z,14.40
2022-10-07T22:38:21.985Z,14.40
2022-10-07T22:40:52.662Z,14.30
2022-10-07T22:43:22.875Z,14.30
2022-10-07T22:46:02.407Z,14.20
2022-10-07T22:48:32.114Z,14.10
2022-10-07T22:51:07.555Z,14.10
2022-10-07T22:53:43.963Z,14.00
2022-10-07T22:56:15.342Z,14.00
2022-10-07T22:58:46.778Z,13.80
2022-10-07T23:01:18.639Z,13.80
2022-10-07T23:03:47.997Z,13.70
2022-10-07T23:06:19.086Z,13.60
2022-10-07T23:08:49.502Z,13.60
2022-10-07T23:11:21.138Z,13.50
2022-10-07T23:13:51.477Z,13.50
2022-10-07T23:16:23.981Z,13.40
2022-10-07T23:18:54.497Z,13.30
2022-10-07T23:21:25.826Z,13.30
2022-10-07T23:24:06.826Z,13.30
2022-10-07T23:26:38.046Z,13.20
2022-10-07T23:29:08.958Z,13.20
2022-10-07T23:31:40.844Z,13.20
2022-10-07T23:34:12.220Z,13.20
2022-10-07T23:36:41.665Z,13.20
2022-10-07T23:39:11.142Z,13.20
2022-10-07T23:41:40.281Z,13.20
2022-10-07T23:44:09.721Z,13.20
2022-10-07T23:46:41.397Z,13.10
2022-10-07T23:49:11.625Z,13.10
2022-10-07T23:51:41.204Z,13.10
2022-10-07T23:54:11.377Z,13.10
2022-10-07T23:56:40.488Z,13.10
2022-10-07T23:59:09.852Z,13.10
